sensor_id;sensor_type;location;lat;lon;timestamp;P1;durP1;ratioP1;P2;durP2;ratioP2
12976;SDS011;6553;48.412;9.514;2022-10-16T00:02:05;1.10;;;0.90;;
12976;SDS011;6553;48.412;9.514;2022-10-16T00:04:31;2.08;;;1.08;;
12976;SDS011;6553;48.412;9.514;2022-10-16T00:06:56;1.00;;;0.90;;
12976;SDS011;6553;48.412;9.514;2022-10-16T00:09:22;0.90;;;0.90;;
12976;SDS011;6553;48.412;9.514;2022-10-16T00:11:48;1.10;;;1.00;;
12976;SDS011;6553;48.412;9.514;2022-10-16T00:14:14;1.65;;;1.00;;
12976;SDS011;6553;48.412;9.514;2022-10-16T00:16:40;1.08;;;1.00;;
12976;SDS011;6553;48.412;9.514;2022-10-16T00:19:07;2.00;;;1.08;;
12976;SDS011;6553;48.412;9.514;2022-10-16T00:21:34;0.88;;;0.88;;
12976;SDS011;6553;48.412;9.514;2022-10-16T00:24:01;0.80;;;0.77;;
12976;SDS011;6553;48.412;9.514;2022-10-16T00:26:33;0.98;;;0.90;;
12976;SDS011;6553;48.412;9.514;2022-10-16T00:29:01;1.48;;;1.08;;
12976;SDS011;6553;48.412;9.514;2022-10-16T00:31:28;0.90;;;0.80;;
12976;SDS011;6553;48.412;9.514;2022-10-16T00:33:55;0.82;;;0.77;;
12976;SDS011;6553;48.412;9.514;2022-10-16T00:36:22;1.33;;;0.98;;
12976;SDS011;6553;48.412;9.514;2022-10-16T00:38:50;1.75;;;1.00;;
12976;SDS011;6553;48.412;9.514;2022-10-16T00:41:23;1.45;;;0.90;;
12976;SDS011;6553;48.412;9.514;2022-10-16T00:43:51;1.02;;;0.93;;
12976;SDS011;6553;48.412;9.514;2022-10-16T00:46:24;1.20;;;0.90;;
12976;SDS011;6553;48.412;9.514;2022-10-16T00:49:15;1.08;;;0.85;;
12976;SDS011;6553;48.412;9.514;2022-10-16T00:51:45;0.80;;;0.80;;
12976;SDS011;6553;48.412;9.514;2022-10-16T00:54:16;0.95;;;0.85;;
12976;SDS011;6553;48.412;9.514;2022-10-16T00:56:47;2.15;;;0.85;;
12976;SDS011;6553;48.412;9.514;2022-10-16T00:59:34;1.45;;;0.90;;
12976;SDS011;6553;48.412;9.514;2022-10-16T01:02:03;1.13;;;0.93;;
12976;SDS011;6553;48.412;9.514;2022-10-16T01:04:32;1.17;;;0.98;;
12976;SDS011;6553;48.412;9.514;2022-10-16T01:07:20;0.93;;;0.82;;
12976;SDS011;6553;48.412;9.514;2022-10-16T01:10:23;0.70;;;0.70;;
12976;SDS011;6553;48.412;9.514;2022-10-16T01:13:21;0.70;;;0.70;;
12976;SDS011;6553;48.412;9.514;2022-10-16T01:19:05;1.20;;;1.08;;
12976;SDS011;6553;48.412;9.514;2022-10-16T01:22:22;1.45;;;1.00;;
12976;SDS011;6553;48.412;9.514;2022-10-16T01:25:01;0.70;;;0.70;;
12976;SDS011;6553;48.412;9.514;2022-10-16T01:27:39;1.17;;;0.88;;
12976;SDS011;6553;48.412;9.514;2022-10-16T01:30:21;0.80;;;0.80;;
12976;SDS011;6553;48.412;9.514;2022-10-16T01:32:54;1.30;;;1.08;;
12976;SDS011;6553;48.412;9.514;2022-10-16T01:35:37;0.73;;;0.73;;
12976;SDS011;6553;48.412;9.514;2022-10-16T01:38:12;0.80;;;0.80;;
12976;SDS011;6553;48.412;9.514;2022-10-16T01:41:00;1.20;;;1.10;;
12976;SDS011;6553;48.412;9.514;2022-10-16T01:43:35;0.80;;;0.80;;
12976;SDS011;6553;48.412;9.514;2022-10-16T01:46:17;0.90;;;0.88;;
12976;SDS011;6553;48.412;9.514;2022-10-16T01:48:46;1.58;;;0.90;;
12976;SDS011;6553;48.412;9.514;2022-10-16T01:51:15;1.10;;;1.00;;
12976;SDS011;6553;48.412;9.514;2022-10-16T01:53:46;1.10;;;0.77;;
12976;SDS011;6553;48.412;9.514;2022-10-16T01:56:17;1.05;;;0.95;;
12976;SDS011;6553;48.412;9.514;2022-10-16T01:58:52;1.38;;;0.80;;
12976;SDS011;6553;48.412;9.514;2022-10-16T02:01:35;1.00;;;0.85;;
12976;SDS011;6553;48.412;9.514;2022-10-16T02:04:11;0.70;;;0.70;;
12976;SDS011;6553;48.412;9.514;2022-10-16T02:06:52;0.70;;;0.70;;
12976;SDS011;6553;48.412;9.514;2022-10-16T02:09:18;0.70;;;0.70;;
12976;SDS011;6553;48.412;9.514;2022-10-16T02:11:44;0.68;;;0.68;;
12976;SDS011;6553;48.412;9.514;2022-10-16T02:14:10;0.75;;;0.75;;
12976;SDS011;6553;48.412;9.514;2022-10-16T02:16:38;1.05;;;0.82;;
12976;SDS011;6553;48.412;9.514;2022-10-16T02:19:10;1.25;;;0.90;;
12976;SDS011;6553;48.412;9.514;2022-10-16T02:21:49;1.77;;;0.90;;
12976;SDS011;6553;48.412;9.514;2022-10-16T02:24:30;0.95;;;0.90;;
12976;SDS011;6553;48.412;9.514;2022-10-16T02:27:13;0.80;;;0.80;;
12976;SDS011;6553;48.412;9.514;2022-10-16T02:29:52;1.50;;;0.90;;
12976;SDS011;6553;48.412;9.514;2022-10-16T02:32:29;0.70;;;0.70;;
12976;SDS011;6553;48.412;9.514;2022-10-16T02:34:57;1.10;;;0.77;;
12976;SDS011;6553;48.412;9.514;2022-10-16T02:37:25;0.68;;;0.68;;
12976;SDS011;6553;48.412;9.514;2022-10-16T02:39:52;0.90;;;0.90;;
12976;SDS011;6553;48.412;9.514;2022-10-16T02:42:27;1.50;;;0.80;;
12976;SDS011;6553;48.412;9.514;2022-10-16T02:45:05;0.60;;;0.60;;
12976;SDS011;6553;48.412;9.514;2022-10-16T02:47:33;0.85;;;0.75;;
12976;SDS011;6553;48.412;9.514;2022-10-16T02:49:59;0.70;;;0.70;;
12976;SDS011;6553;48.412;9.514;2022-10-16T02:52:25;0.85;;;0.80;;
12976;SDS011;6553;48.412;9.514;2022-10-16T02:54:51;0.60;;;0.60;;
12976;SDS011;6553;48.412;9.514;2022-10-16T02:57:17;0.85;;;0.70;;
12976;SDS011;6553;48.412;9.514;2022-10-16T02:59:43;1.13;;;0.90;;
12976;SDS011;6553;48.412;9.514;2022-10-16T03:02:09;0.90;;;0.90;;
12976;SDS011;6553;48.412;9.514;2022-10-16T03:04:36;0.70;;;0.70;;
12976;SDS011;6553;48.412;9.514;2022-10-16T03:07:02;1.05;;;0.90;;
12976;SDS011;6553;48.412;9.514;2022-10-16T03:09:28;0.80;;;0.80;;
12976;SDS011;6553;48.412;9.514;2022-10-16T03:11:53;1.30;;;0.80;;
12976;SDS011;6553;48.412;9.514;2022-10-16T03:14:19;0.90;;;0.80;;
12976;SDS011;6553;48.412;9.514;2022-10-16T03:16:45;0.80;;;0.80;;
12976;SDS011;6553;48.412;9.514;2022-10-16T03:19:11;0.85;;;0.80;;
12976;SDS011;6553;48.412;9.514;2022-10-16T03:21:36;0.80;;;0.80;;
12976;SDS011;6553;48.412;9.514;2022-10-16T03:24:02;0.60;;;0.60;;
12976;SDS011;6553;48.412;9.514;2022-10-16T03:26:28;0.80;;;0.80;;
12976;SDS011;6553;48.412;9.514;2022-10-16T03:28:54;1.13;;;0.90;;
12976;SDS011;6553;48.412;9.514;2022-10-16T03:31:20;0.60;;;0.60;;
12976;SDS011;6553;48.412;9.514;2022-10-16T03:33:46;0.70;;;0.70;;
12976;SDS011;6553;48.412;9.514;2022-10-16T03:36:11;1.33;;;0.70;;
12976;SDS011;6553;48.412;9.514;2022-10-16T03:38:37;0.70;;;0.70;;
12976;SDS011;6553;48.412;9.514;2022-10-16T03:41:03;0.85;;;0.85;;
12976;SDS011;6553;48.412;9.514;2022-10-16T03:43:29;0.88;;;0.70;;
12976;SDS011;6553;48.412;9.514;2022-10-16T03:45:55;0.70;;;0.70;;
12976;SDS011;6553;48.412;9.514;2022-10-16T03:48:20;0.88;;;0.88;;
12976;SDS011;6553;48.412;9.514;2022-10-16T03:50:46;0.82;;;0.82;;
12976;SDS011;6553;48.412;9.514;2022-10-16T03:53:13;1.08;;;0.80;;
12976;SDS011;6553;48.412;9.514;2022-10-16T03:55:43;0.70;;;0.70;;
12976;SDS011;6553;48.412;9.514;2022-10-16T03:58:10;0.75;;;0.75;;
12976;SDS011;6553;48.412;9.514;2022-10-16T04:00:40;0.70;;;0.70;;
12976;SDS011;6553;48.412;9.514;2022-10-16T04:03:10;0.60;;;0.60;;
12976;SDS011;6553;48.412;9.514;2022-10-16T04:05:36;1.02;;;0.80;;
12976;SDS011;6553;48.412;9.514;2022-10-16T04:08:04;1.40;;;1.00;;
12976;SDS011;6553;48.412;9.514;2022-10-16T04:10:29;1.00;;;0.90;;
12976;SDS011;6553;48.412;9.514;2022-10-16T04:12:55;1.10;;;0.90;;
12976;SDS011;6553;48.412;9.514;2022-10-16T04:15:24;0.80;;;0.80;;
12976;SDS011;6553;48.412;9.514;2022-10-16T04:17:51;0.80;;;0.80;;
12976;SDS011;6553;48.412;9.514;2022-10-16T04:20:18;0.50;;;0.50;;
12976;SDS011;6553;48.412;9.514;2022-10-16T04:22:44;0.82;;;0.82;;
12976;SDS011;6553;48.412;9.514;2022-10-16T04:25:10;0.93;;;0.88;;
12976;SDS011;6553;48.412;9.514;2022-10-16T04:27:36;0.70;;;0.70;;
12976;SDS011;6553;48.412;9.514;2022-10-16T04:30:03;0.80;;;0.80;;
12976;SDS011;6553;48.412;9.514;2022-10-16T04:32:30;0.80;;;0.80;;
12976;SDS011;6553;48.412;9.514;2022-10-16T04:34:56;0.90;;;0.80;;
12976;SDS011;6553;48.412;9.514;2022-10-16T04:37:25;0.80;;;0.77;;
12976;SDS011;6553;48.412;9.514;2022-10-16T04:39:55;0.90;;;0.90;;
12976;SDS011;6553;48.412;9.514;2022-10-16T04:42:21;0.63;;;0.63;;
12976;SDS011;6553;48.412;9.514;2022-10-16T04:44:46;0.93;;;0.77;;
12976;SDS011;6553;48.412;9.514;2022-10-16T04:47:12;1.02;;;0.90;;
12976;SDS011;6553;48.412;9.514;2022-10-16T04:49:39;0.70;;;0.70;;
12976;SDS011;6553;48.412;9.514;2022-10-16T04:52:05;1.10;;;0.73;;
12976;SDS011;6553;48.412;9.514;2022-10-16T04:54:31;1.17;;;0.70;;
12976;SDS011;6553;48.412;9.514;2022-10-16T04:56:56;0.70;;;0.70;;
12976;SDS011;6553;48.412;9.514;2022-10-16T04:59:22;1.30;;;0.63;;
12976;SDS011;6553;48.412;9.514;2022-10-16T05:01:49;0.70;;;0.70;;
12976;SDS011;6553;48.412;9.514;2022-10-16T05:04:14;1.00;;;0.80;;
12976;SDS011;6553;48.412;9.514;2022-10-16T05:06:41;1.42;;;0.85;;
12976;SDS011;6553;48.412;9.514;2022-10-16T05:09:07;0.77;;;0.77;;
12976;SDS011;6553;48.412;9.514;2022-10-16T05:11:34;1.08;;;0.90;;
12976;SDS011;6553;48.412;9.514;2022-10-16T05:14:00;0.98;;;0.90;;
12976;SDS011;6553;48.412;9.514;2022-10-16T05:16:27;1.15;;;0.90;;
12976;SDS011;6553;48.412;9.514;2022-10-16T05:18:53;0.70;;;0.70;;
12976;SDS011;6553;48.412;9.514;2022-10-16T05:21:19;0.75;;;0.73;;
12976;SDS011;6553;48.412;9.514;2022-10-16T05:23:45;0.80;;;0.80;;
12976;SDS011;6553;48.412;9.514;2022-10-16T05:26:11;0.80;;;0.80;;
12976;SDS011;6553;48.412;9.514;2022-10-16T05:28:37;0.88;;;0.70;;
12976;SDS011;6553;48.412;9.514;2022-10-16T05:31:06;0.65;;;0.65;;
12976;SDS011;6553;48.412;9.514;2022-10-16T05:33:34;0.88;;;0.88;;
12976;SDS011;6553;48.412;9.514;2022-10-16T05:36:01;1.70;;;1.00;;
12976;SDS011;6553;48.412;9.514;2022-10-16T05:38:32;0.70;;;0.70;;
12976;SDS011;6553;48.412;9.514;2022-10-16T05:40:59;0.80;;;0.80;;
12976;SDS011;6553;48.412;9.514;2022-10-16T05:43:26;0.85;;;0.80;;
12976;SDS011;6553;48.412;9.514;2022-10-16T05:45:54;0.70;;;0.70;;
12976;SDS011;6553;48.412;9.514;2022-10-16T05:48:29;2.05;;;1.25;;
12976;SDS011;6553;48.412;9.514;2022-10-16T05:50:56;0.80;;;0.70;;
12976;SDS011;6553;48.412;9.514;2022-10-16T05:53:28;0.95;;;0.93;;
12976;SDS011;6553;48.412;9.514;2022-10-16T05:55:56;2.13;;;1.70;;
12976;SDS011;6553;48.412;9.514;2022-10-16T05:58:23;1.67;;;1.58;;
12976;SDS011;6553;48.412;9.514;2022-10-16T06:00:57;1.60;;;1.50;;
12976;SDS011;6553;48.412;9.514;2022-10-16T06:03:26;2.90;;;1.63;;
12976;SDS011;6553;48.412;9.514;2022-10-16T06:05:53;1.88;;;1.58;;
12976;SDS011;6553;48.412;9.514;2022-10-16T06:08:19;1.48;;;1.20;;
12976;SDS011;6553;48.412;9.514;2022-10-16T06:10:47;1.55;;;1.40;;
12976;SDS011;6553;48.412;9.514;2022-10-16T06:13:24;1.60;;;1.50;;
12976;SDS011;6553;48.412;9.514;2022-10-16T06:15:50;1.50;;;1.30;;
12976;SDS011;6553;48.412;9.514;2022-10-16T06:18:16;1.60;;;1.48;;
12976;SDS011;6553;48.412;9.514;2022-10-16T06:20:42;2.72;;;1.60;;
12976;SDS011;6553;48.412;9.514;2022-10-16T06:23:07;1.50;;;1.40;;
12976;SDS011;6553;48.412;9.514;2022-10-16T06:25:33;1.40;;;1.30;;
12976;SDS011;6553;48.412;9.514;2022-10-16T06:27:59;1.63;;;1.30;;
12976;SDS011;6553;48.412;9.514;2022-10-16T06:30:24;1.30;;;1.23;;
12976;SDS011;6553;48.412;9.514;2022-10-16T06:32:50;2.15;;;1.55;;
12976;SDS011;6553;48.412;9.514;2022-10-16T06:35:16;2.05;;;1.63;;
12976;SDS011;6553;48.412;9.514;2022-10-16T06:37:42;1.50;;;1.40;;
12976;SDS011;6553;48.412;9.514;2022-10-16T06:40:07;1.60;;;1.33;;
12976;SDS011;6553;48.412;9.514;2022-10-16T06:42:33;1.73;;;1.58;;
12976;SDS011;6553;48.412;9.514;2022-10-16T06:44:59;1.42;;;1.33;;
12976;SDS011;6553;48.412;9.514;2022-10-16T06:47:25;1.40;;;1.30;;
12976;SDS011;6553;48.412;9.514;2022-10-16T06:49:50;1.20;;;1.10;;
12976;SDS011;6553;48.412;9.514;2022-10-16T06:52:16;1.35;;;1.25;;
12976;SDS011;6553;48.412;9.514;2022-10-16T06:54:42;1.40;;;1.30;;
12976;SDS011;6553;48.412;9.514;2022-10-16T06:57:07;1.20;;;1.10;;
12976;SDS011;6553;48.412;9.514;2022-10-16T06:59:33;1.33;;;1.23;;
12976;SDS011;6553;48.412;9.514;2022-10-16T07:01:59;1.40;;;1.30;;
12976;SDS011;6553;48.412;9.514;2022-10-16T07:04:25;1.45;;;1.35;;
12976;SDS011;6553;48.412;9.514;2022-10-16T07:06:50;1.42;;;1.30;;
12976;SDS011;6553;48.412;9.514;2022-10-16T07:09:16;1.42;;;1.20;;
12976;SDS011;6553;48.412;9.514;2022-10-16T07:11:42;1.65;;;1.40;;
12976;SDS011;6553;48.412;9.514;2022-10-16T07:14:18;1.13;;;1.02;;
12976;SDS011;6553;48.412;9.514;2022-10-16T07:16:46;1.30;;;1.20;;
12976;SDS011;6553;48.412;9.514;2022-10-16T07:19:13;1.90;;;1.10;;
12976;SDS011;6553;48.412;9.514;2022-10-16T07:21:42;1.50;;;1.40;;
12976;SDS011;6553;48.412;9.514;2022-10-16T07:24:11;1.27;;;1.17;;
12976;SDS011;6553;48.412;9.514;2022-10-16T07:26:40;2.47;;;1.30;;
12976;SDS011;6553;48.412;9.514;2022-10-16T07:29:15;1.40;;;1.30;;
12976;SDS011;6553;48.412;9.514;2022-10-16T07:31:44;1.38;;;1.10;;
12976;SDS011;6553;48.412;9.514;2022-10-16T07:34:11;1.20;;;1.10;;
12976;SDS011;6553;48.412;9.514;2022-10-16T07:36:39;1.20;;;1.10;;
12976;SDS011;6553;48.412;9.514;2022-10-16T07:39:05;1.38;;;1.27;;
12976;SDS011;6553;48.412;9.514;2022-10-16T07:41:31;0.90;;;0.90;;
12976;SDS011;6553;48.412;9.514;2022-10-16T07:43:57;1.27;;;1.00;;
12976;SDS011;6553;48.412;9.514;2022-10-16T07:46:26;1.30;;;1.10;;
12976;SDS011;6553;48.412;9.514;2022-10-16T07:48:53;2.25;;;1.25;;
12976;SDS011;6553;48.412;9.514;2022-10-16T07:51:20;1.27;;;1.17;;
12976;SDS011;6553;48.412;9.514;2022-10-16T07:53:48;1.20;;;1.10;;
12976;SDS011;6553;48.412;9.514;2022-10-16T07:56:15;1.63;;;1.10;;
12976;SDS011;6553;48.412;9.514;2022-10-16T07:58:43;1.42;;;1.30;;
12976;SDS011;6553;48.412;9.514;2022-10-16T08:01:10;0.93;;;0.93;;
12976;SDS011;6553;48.412;9.514;2022-10-16T08:03:41;1.15;;;1.05;;
12976;SDS011;6553;48.412;9.514;2022-10-16T08:06:11;1.23;;;1.13;;
12976;SDS011;6553;48.412;9.514;2022-10-16T08:08:37;1.45;;;1.30;;
12976;SDS011;6553;48.412;9.514;2022-10-16T08:11:02;1.20;;;1.10;;
12976;SDS011;6553;48.412;9.514;2022-10-16T08:13:29;1.05;;;1.05;;
12976;SDS011;6553;48.412;9.514;2022-10-16T08:15:56;1.10;;;1.00;;
12976;SDS011;6553;48.412;9.514;2022-10-16T08:18:22;1.35;;;1.25;;
12976;SDS011;6553;48.412;9.514;2022-10-16T08:20:54;1.30;;;1.20;;
12976;SDS011;6553;48.412;9.514;2022-10-16T08:23:22;1.20;;;1.10;;
12976;SDS011;6553;48.412;9.514;2022-10-16T08:25:50;2.10;;;1.42;;
12976;SDS011;6553;48.412;9.514;2022-10-16T08:28:18;1.30;;;1.20;;
12976;SDS011;6553;48.412;9.514;2022-10-16T08:30:45;2.05;;;1.25;;
12976;SDS011;6553;48.412;9.514;2022-10-16T08:33:11;1.00;;;0.80;;
12976;SDS011;6553;48.412;9.514;2022-10-16T08:35:36;0.95;;;0.90;;
12976;SDS011;6553;48.412;9.514;2022-10-16T08:38:03;1.40;;;1.20;;
12976;SDS011;6553;48.412;9.514;2022-10-16T08:40:30;1.23;;;1.13;;
12976;SDS011;6553;48.412;9.514;2022-10-16T08:48:45;1.40;;;1.00;;
12976;SDS011;6553;48.412;9.514;2022-10-16T08:51:20;1.25;;;1.10;;
12976;SDS011;6553;48.412;9.514;2022-10-16T08:53:58;0.90;;;0.90;;
12976;SDS011;6553;48.412;9.514;2022-10-16T08:56:29;1.05;;;1.00;;
12976;SDS011;6553;48.412;9.514;2022-10-16T08:58:57;0.90;;;0.90;;
12976;SDS011;6553;48.412;9.514;2022-10-16T09:01:25;1.08;;;1.00;;
12976;SDS011;6553;48.412;9.514;2022-10-16T09:07:28;1.30;;;1.20;;
12976;SDS011;6553;48.412;9.514;2022-10-16T09:10:33;1.27;;;1.17;;
12976;SDS011;6553;48.412;9.514;2022-10-16T09:19:11;1.70;;;1.20;;
12976;SDS011;6553;48.412;9.514;2022-10-16T09:21:47;1.17;;;1.10;;
12976;SDS011;6553;48.412;9.514;2022-10-16T09:24:18;1.15;;;1.00;;
12976;SDS011;6553;48.412;9.514;2022-10-16T09:26:46;0.95;;;0.95;;
12976;SDS011;6553;48.412;9.514;2022-10-16T09:29:13;1.30;;;1.08;;
12976;SDS011;6553;48.412;9.514;2022-10-16T09:31:41;1.10;;;1.00;;
12976;SDS011;6553;48.412;9.514;2022-10-16T09:34:14;1.08;;;0.98;;
12976;SDS011;6553;48.412;9.514;2022-10-16T09:36:53;1.10;;;1.00;;
12976;SDS011;6553;48.412;9.514;2022-10-16T09:39:22;2.70;;;1.30;;
12976;SDS011;6553;48.412;9.514;2022-10-16T09:41:47;0.90;;;0.90;;
12976;SDS011;6553;48.412;9.514;2022-10-16T09:44:19;1.17;;;1.08;;
12976;SDS011;6553;48.412;9.514;2022-10-16T09:47:01;1.73;;;1.10;;
12976;SDS011;6553;48.412;9.514;2022-10-16T09:49:39;1.00;;;0.90;;
12976;SDS011;6553;48.412;9.514;2022-10-16T09:52:16;1.73;;;1.00;;
12976;SDS011;6553;48.412;9.514;2022-10-16T09:54:51;2.00;;;1.20;;
12976;SDS011;6553;48.412;9.514;2022-10-16T09:57:20;1.73;;;1.20;;
12976;SDS011;6553;48.412;9.514;2022-10-16T09:59:51;1.63;;;1.10;;
12976;SDS011;6553;48.412;9.514;2022-10-16T10:02:20;0.70;;;0.70;;
12976;SDS011;6553;48.412;9.514;2022-10-16T10:05:20;2.35;;;1.00;;
12976;SDS011;6553;48.412;9.514;2022-10-16T10:07:57;1.67;;;1.20;;
12976;SDS011;6553;48.412;9.514;2022-10-16T10:10:26;2.05;;;1.00;;
12976;SDS011;6553;48.412;9.514;2022-10-16T10:12:55;1.58;;;1.23;;
12976;SDS011;6553;48.412;9.514;2022-10-16T10:15:22;1.13;;;1.00;;
12976;SDS011;6553;48.412;9.514;2022-10-16T10:17:50;1.58;;;1.00;;
12976;SDS011;6553;48.412;9.514;2022-10-16T10:20:29;3.05;;;1.20;;
12976;SDS011;6553;48.412;9.514;2022-10-16T10:22:59;2.83;;;1.20;;
12976;SDS011;6553;48.412;9.514;2022-10-16T10:26:04;2.80;;;1.02;;
12976;SDS011;6553;48.412;9.514;2022-10-16T10:28:54;1.20;;;0.93;;
12976;SDS011;6553;48.412;9.514;2022-10-16T10:46:00;1.00;;;1.00;;
12976;SDS011;6553;48.412;9.514;2022-10-16T10:51:49;1.20;;;1.08;;
12976;SDS011;6553;48.412;9.514;2022-10-16T10:54:48;1.25;;;1.00;;
12976;SDS011;6553;48.412;9.514;2022-10-16T11:06:12;1.80;;;1.35;;
12976;SDS011;6553;48.412;9.514;2022-10-16T11:08:57;8.02;;;5.00;;
12976;SDS011;6553;48.412;9.514;2022-10-16T11:14:21;4.88;;;3.22;;
12976;SDS011;6553;48.412;9.514;2022-10-16T11:17:31;6.15;;;2.40;;
12976;SDS011;6553;48.412;9.514;2022-10-16T11:20:12;2.72;;;2.10;;
12976;SDS011;6553;48.412;9.514;2022-10-16T11:33:24;3.92;;;2.45;;
12976;SDS011;6553;48.412;9.514;2022-10-16T11:36:02;3.78;;;1.90;;
12976;SDS011;6553;48.412;9.514;2022-10-16T11:50:34;3.08;;;1.95;;
12976;SDS011;6553;48.412;9.514;2022-10-16T11:56:13;2.53;;;1.92;;
12976;SDS011;6553;48.412;9.514;2022-10-16T11:58:47;3.05;;;1.80;;
12976;SDS011;6553;48.412;9.514;2022-10-16T12:07:08;2.72;;;2.03;;
12976;SDS011;6553;48.412;9.514;2022-10-16T12:09:55;3.05;;;1.65;;
12976;SDS011;6553;48.412;9.514;2022-10-16T12:17:54;3.88;;;2.08;;
12976;SDS011;6553;48.412;9.514;2022-10-16T12:20:33;3.30;;;1.75;;
12976;SDS011;6553;48.412;9.514;2022-10-16T12:23:02;2.30;;;1.67;;
12976;SDS011;6553;48.412;9.514;2022-10-16T12:25:31;2.13;;;1.85;;
12976;SDS011;6553;48.412;9.514;2022-10-16T12:30:40;2.28;;;1.75;;
12976;SDS011;6553;48.412;9.514;2022-10-16T12:33:23;3.83;;;1.80;;
12976;SDS011;6553;48.412;9.514;2022-10-16T12:35:52;2.42;;;1.60;;
12976;SDS011;6553;48.412;9.514;2022-10-16T12:38:24;2.30;;;1.77;;
12976;SDS011;6553;48.412;9.514;2022-10-16T12:41:00;2.72;;;1.88;;
12976;SDS011;6553;48.412;9.514;2022-10-16T12:43:43;2.05;;;1.80;;
12976;SDS011;6553;48.412;9.514;2022-10-16T12:48:37;2.88;;;1.67;;
12976;SDS011;6553;48.412;9.514;2022-10-16T12:51:21;2.03;;;1.45;;
12976;SDS011;6553;48.412;9.514;2022-10-16T12:54:03;3.15;;;1.70;;
12976;SDS011;6553;48.412;9.514;2022-10-16T12:59:30;3.08;;;1.70;;
12976;SDS011;6553;48.412;9.514;2022-10-16T13:10:59;2.33;;;1.65;;
12976;SDS011;6553;48.412;9.514;2022-10-16T13:13:53;3.10;;;1.75;;
12976;SDS011;6553;48.412;9.514;2022-10-16T13:16:25;2.92;;;1.70;;
12976;SDS011;6553;48.412;9.514;2022-10-16T13:24:36;2.03;;;1.27;;
12976;SDS011;6553;48.412;9.514;2022-10-16T13:27:33;3.25;;;1.48;;
12976;SDS011;6553;48.412;9.514;2022-10-16T13:30:21;2.17;;;1.40;;
12976;SDS011;6553;48.412;9.514;2022-10-16T13:32:53;2.88;;;1.70;;
12976;SDS011;6553;48.412;9.514;2022-10-16T13:35:46;2.42;;;1.70;;
12976;SDS011;6553;48.412;9.514;2022-10-16T13:38:29;2.22;;;1.75;;
12976;SDS011;6553;48.412;9.514;2022-10-16T13:40:59;4.07;;;1.25;;
12976;SDS011;6553;48.412;9.514;2022-10-16T13:43:38;4.57;;;1.63;;
12976;SDS011;6553;48.412;9.514;2022-10-16T13:46:16;4.07;;;1.80;;
12976;SDS011;6553;48.412;9.514;2022-10-16T13:49:00;3.22;;;1.50;;
12976;SDS011;6553;48.412;9.514;2022-10-16T13:51:30;2.83;;;1.40;;
12976;SDS011;6553;48.412;9.514;2022-10-16T13:53:58;1.88;;;1.48;;
12976;SDS011;6553;48.412;9.514;2022-10-16T13:56:31;2.80;;;1.45;;
12976;SDS011;6553;48.412;9.514;2022-10-16T13:58:58;1.88;;;1.70;;
12976;SDS011;6553;48.412;9.514;2022-10-16T14:01:31;2.30;;;1.33;;
12976;SDS011;6553;48.412;9.514;2022-10-16T14:04:09;3.80;;;1.35;;
12976;SDS011;6553;48.412;9.514;2022-10-16T14:06:42;1.75;;;1.30;;
12976;SDS011;6553;48.412;9.514;2022-10-16T14:11:56;2.67;;;1.63;;
12976;SDS011;6553;48.412;9.514;2022-10-16T14:14:40;1.33;;;1.15;;
12976;SDS011;6553;48.412;9.514;2022-10-16T14:17:15;1.98;;;1.40;;
12976;SDS011;6553;48.412;9.514;2022-10-16T14:19:47;2.85;;;1.30;;
12976;SDS011;6553;48.412;9.514;2022-10-16T14:22:38;1.98;;;1.40;;
12976;SDS011;6553;48.412;9.514;2022-10-16T14:27:44;2.85;;;1.50;;
12976;SDS011;6553;48.412;9.514;2022-10-16T14:30:21;2.88;;;1.30;;
12976;SDS011;6553;48.412;9.514;2022-10-16T14:33:04;2.97;;;1.38;;
12976;SDS011;6553;48.412;9.514;2022-10-16T14:35:44;2.35;;;1.50;;
12976;SDS011;6553;48.412;9.514;2022-10-16T14:38:17;2.60;;;1.40;;
12976;SDS011;6553;48.412;9.514;2022-10-16T14:40:48;1.00;;;1.00;;
12976;SDS011;6553;48.412;9.514;2022-10-16T14:45:51;1.50;;;1.40;;
12976;SDS011;6553;48.412;9.514;2022-10-16T14:48:21;2.03;;;1.10;;
12976;SDS011;6553;48.412;9.514;2022-10-16T14:50:47;1.38;;;1.20;;
12976;SDS011;6553;48.412;9.514;2022-10-16T14:53:13;1.83;;;1.42;;
12976;SDS011;6553;48.412;9.514;2022-10-16T14:55:39;1.85;;;1.25;;
12976;SDS011;6553;48.412;9.514;2022-10-16T14:58:13;1.52;;;1.42;;
12976;SDS011;6553;48.412;9.514;2022-10-16T15:00:46;2.10;;;1.27;;
12976;SDS011;6553;48.412;9.514;2022-10-16T15:03:13;2.85;;;1.65;;
12976;SDS011;6553;48.412;9.514;2022-10-16T15:05:39;1.30;;;1.20;;
12976;SDS011;6553;48.412;9.514;2022-10-16T15:08:05;1.30;;;1.20;;
12976;SDS011;6553;48.412;9.514;2022-10-16T15:10:31;2.78;;;1.58;;
12976;SDS011;6553;48.412;9.514;2022-10-16T15:13:03;1.40;;;1.30;;
12976;SDS011;6553;48.412;9.514;2022-10-16T15:15:45;1.95;;;1.35;;
12976;SDS011;6553;48.412;9.514;2022-10-16T15:18:14;2.17;;;1.40;;
12976;SDS011;6553;48.412;9.514;2022-10-16T15:20:44;1.75;;;1.50;;
12976;SDS011;6553;48.412;9.514;2022-10-16T15:23:16;1.98;;;1.27;;
12976;SDS011;6553;48.412;9.514;2022-10-16T15:25:50;3.05;;;1.35;;
12976;SDS011;6553;48.412;9.514;2022-10-16T15:28:19;1.40;;;1.30;;
12976;SDS011;6553;48.412;9.514;2022-10-16T15:30:48;2.20;;;1.45;;
12976;SDS011;6553;48.412;9.514;2022-10-16T15:33:17;1.90;;;1.45;;
12976;SDS011;6553;48.412;9.514;2022-10-16T15:35:51;1.45;;;1.35;;
12976;SDS011;6553;48.412;9.514;2022-10-16T15:38:18;2.63;;;1.40;;
12976;SDS011;6553;48.412;9.514;2022-10-16T15:40:46;2.00;;;1.20;;
12976;SDS011;6553;48.412;9.514;2022-10-16T15:43:13;1.30;;;1.20;;
12976;SDS011;6553;48.412;9.514;2022-10-16T15:45:39;2.28;;;1.80;;
12976;SDS011;6553;48.412;9.514;2022-10-16T15:48:05;2.45;;;1.30;;
12976;SDS011;6553;48.412;9.514;2022-10-16T15:50:34;3.15;;;1.30;;
12976;SDS011;6553;48.412;9.514;2022-10-16T15:53:03;1.65;;;1.27;;
12976;SDS011;6553;48.412;9.514;2022-10-16T15:55:29;1.77;;;1.10;;
12976;SDS011;6553;48.412;9.514;2022-10-16T15:57:55;2.92;;;1.42;;
12976;SDS011;6553;48.412;9.514;2022-10-16T16:00:20;2.35;;;1.65;;
12976;SDS011;6553;48.412;9.514;2022-10-16T16:02:51;3.10;;;1.85;;
12976;SDS011;6553;48.412;9.514;2022-10-16T16:05:19;1.60;;;1.38;;
12976;SDS011;6553;48.412;9.514;2022-10-16T16:07:46;3.28;;;1.70;;
12976;SDS011;6553;48.412;9.514;2022-10-16T16:10:13;2.50;;;1.70;;
12976;SDS011;6553;48.412;9.514;2022-10-16T16:12:39;2.63;;;1.80;;
12976;SDS011;6553;48.412;9.514;2022-10-16T16:15:05;1.92;;;1.40;;
12976;SDS011;6553;48.412;9.514;2022-10-16T16:17:33;2.42;;;1.65;;
12976;SDS011;6553;48.412;9.514;2022-10-16T16:20:00;2.05;;;1.70;;
12976;SDS011;6553;48.412;9.514;2022-10-16T16:22:26;1.75;;;1.65;;
12976;SDS011;6553;48.412;9.514;2022-10-16T16:24:53;2.55;;;1.95;;
12976;SDS011;6553;48.412;9.514;2022-10-16T16:27:19;1.73;;;1.63;;
12976;SDS011;6553;48.412;9.514;2022-10-16T16:29:45;1.73;;;1.60;;
12976;SDS011;6553;48.412;9.514;2022-10-16T16:32:11;1.70;;;1.50;;
12976;SDS011;6553;48.412;9.514;2022-10-16T16:34:37;1.98;;;1.50;;
12976;SDS011;6553;48.412;9.514;2022-10-16T16:37:03;2.35;;;1.80;;
12976;SDS011;6553;48.412;9.514;2022-10-16T16:39:29;2.65;;;1.83;;
12976;SDS011;6553;48.412;9.514;2022-10-16T16:41:56;1.73;;;1.40;;
12976;SDS011;6553;48.412;9.514;2022-10-16T16:44:23;1.58;;;1.30;;
12976;SDS011;6553;48.412;9.514;2022-10-16T16:46:50;2.47;;;1.70;;
12976;SDS011;6553;48.412;9.514;2022-10-16T16:49:16;1.50;;;1.40;;
12976;SDS011;6553;48.412;9.514;2022-10-16T16:51:42;1.73;;;1.60;;
12976;SDS011;6553;48.412;9.514;2022-10-16T16:54:09;1.67;;;1.42;;
12976;SDS011;6553;48.412;9.514;2022-10-16T16:56:36;1.83;;;1.70;;
12976;SDS011;6553;48.412;9.514;2022-10-16T16:59:02;1.70;;;1.60;;
12976;SDS011;6553;48.412;9.514;2022-10-16T17:01:29;2.65;;;1.67;;
12976;SDS011;6553;48.412;9.514;2022-10-16T17:03:56;1.95;;;1.50;;
12976;SDS011;6553;48.412;9.514;2022-10-16T17:06:25;2.33;;;1.70;;
12976;SDS011;6553;48.412;9.514;2022-10-16T17:08:54;2.65;;;1.95;;
12976;SDS011;6553;48.412;9.514;2022-10-16T17:11:22;3.78;;;1.85;;
12976;SDS011;6553;48.412;9.514;2022-10-16T17:13:51;2.15;;;1.85;;
12976;SDS011;6553;48.412;9.514;2022-10-16T17:16:20;5.03;;;1.90;;
12976;SDS011;6553;48.412;9.514;2022-10-16T17:18:59;3.17;;;1.80;;